Etusivu
METAR-TAF:

METAR-TAF

Lentoasemat :

Sandefjordin lentoasema

Sandefjord, Norja

Leveyspiiri: 59-12N, Pituuspiiri: 010-16E, korkeus merenpinnasta: 8 m

Tämänhetkinen sää

Tämä raportti tehtiin 21 minuuttia sitten, kello 11.20 UTC
Tuuli 14 kn lännestä, vaihdellen lännen/lounaan ja luoteen välillä
Lämpötila 10°C
Kosteus 46%
Ilmanpaine 1016 hPa
Näkyvyys 10 km tai enemmän
ei pilviä alle 1500 m:ssä eikä cumulonimbus-pilviä

METAR: ENTO 221120Z 27014KT 240V310 CAVOK 10/M01 Q1016

Aika: 13:41 (11:41 UTC)

Sääennuste

Ennuste voimassa 22. päivästä klo 06 UTC - 23. päivään klo 06 UTC
Tuuli 8 kn lounaasta
Näkyvyys 10 km tai enemmän
ei pilviä alle 1500 m:ssä eikä cumulonimbus-pilviä
Ajoittain
22. päivästä klo 08 UTC - 22. päivään klo 16 UTC
Tuuli 15 kn lännestä puuskistuen 25 kn:hen
Ajoittain
22. päivästä klo 16 UTC - 22. päivään klo 24 UTC
Tuuli 15 kn lounaasta puuskistuen 25 kn:hen

TAF: ENTO 2206/2306 23008KT CAVOK TEMPO 2208/2216 27015G25KT TEMPO 2216/2224 22015G25KT

Säähavainnot ja -ennusteet yli 4000 lentoasemalta (METAR- ja TAF-raportit).

Käytössä olevat sääasemat on merkitty karttaan keltaisilla ja punaisilla pisteillä.

Aseta hiiri pisteen päälle nähdäksesi sääaseman nimen.

Klikkaa sitten nähdäksesi säähavainnot ja -ennusteet.

Kartan vaihtaminen: klikkaa mustalla rastilla varustettuja vihreitä pisteitä, niin voit zoomata sisään; viivalla varustettua vihreää pistettä, niin voit zoomata ulos tai vihreitä nuolia, niin pääset viereisille kartoille.


METAR-TAF: